Time;durP1;ratioP1;P1;durP2;ratioP2;P2;SDS_P1;SDS_P2;PMS_P1;PMS_P2;Temp;Humidity;BMP_temperature;BMP_pressure;BME280_temperature;BME280_humidity;BME280_pressure;Samples;Min_cycle;Max_cycle;Signal;HPM_P1;HPM_P2
2023/10/02 00:01:53;;;;;;;15.07;11.93;;;23.50;91.70;;;;;;6215709;23;20011;-77
2023/10/02 00:04:20;;;;;;;16.80;12.80;;;23.50;91.70;;;;;;6214486;23;20031;-78
2023/10/02 00:06:50;;;;;;;17.08;13.63;;;23.50;91.80;;;;;;6215367;23;20005;-77
2023/10/02 00:09:20;;;;;;;17.77;14.00;;;23.50;91.90;;;;;;6215926;23;20004;-77
2023/10/02 00:11:46;;;;;;;17.10;14.52;;;23.50;91.90;;;;;;6190425;23;20009;-78
2023/10/02 00:14:19;;;;;;;17.33;14.32;;;23.50;91.90;;;;;;6215705;23;20359;-78
2023/10/02 00:17:00;;;;;;;19.75;14.63;;;23.50;92.00;;;;;;6213826;23;20008;-77
2023/10/02 00:19:30;;;;;;;14.85;13.25;;;23.50;92.00;;;;;;6214728;23;20362;-77
2023/10/02 00:21:57;;;;;;;19.73;15.00;;;23.50;92.00;;;;;;6215000;23;20060;-77
2023/10/02 00:24:25;;;;;;;18.52;15.25;;;23.40;92.00;;;;;;6215073;23;20088;-77
2023/10/02 00:26:51;;;;;;;18.30;14.48;;;23.40;92.10;;;;;;6215700;23;20024;-77
2023/10/02 00:29:17;;;;;;;15.52;13.80;;;23.40;92.10;;;;;;6214189;23;20000;-78
2023/10/02 00:31:46;;;;;;;16.48;13.43;;;23.40;92.10;;;;;;6215016;23;20001;-77
2023/10/02 00:34:13;;;;;;;16.55;13.73;;;23.40;92.10;;;;;;6215283;23;20009;-77
2023/10/02 00:36:40;;;;;;;16.05;14.32;;;23.40;92.10;;;;;;6215634;23;20037;-78
2023/10/02 00:39:27;;;;;;;17.58;15.00;;;23.40;92.10;;;;;;6215574;23;20001;-77
2023/10/02 00:42:15;;;;;;;20.45;17.02;;;23.40;92.10;;;;;;6214998;23;20312;-78
2023/10/02 00:44:52;;;;;;;22.08;16.48;;;23.40;92.10;;;;;;6214983;23;20005;-78
2023/10/02 00:50:07;;;;;;;18.25;16.05;;;23.40;92.20;;;;;;6214600;23;20032;-78
2023/10/02 00:52:33;;;;;;;19.15;16.52;;;23.30;92.30;;;;;;6215180;23;20066;-77
2023/10/02 00:55:05;;;;;;;20.42;16.35;;;23.30;92.30;;;;;;6187959;23;20091;-77
2023/10/02 00:57:35;;;;;;;16.90;15.10;;;23.30;92.40;;;;;;6187901;23;20011;-78
2023/10/02 01:00:17;;;;;;;20.10;15.57;;;23.30;92.50;;;;;;6215088;23;20068;-78
2023/10/02 01:02:51;;;;;;;16.10;14.38;;;23.20;92.50;;;;;;6215001;23;20008;-78
2023/10/02 01:05:21;;;;;;;19.13;15.13;;;23.20;92.50;;;;;;6214640;23;20087;-78
2023/10/02 01:07:53;;;;;;;17.83;14.70;;;23.20;92.60;;;;;;6188044;23;20072;-78
2023/10/02 01:10:19;;;;;;;17.17;13.80;;;23.20;92.70;;;;;;6214236;23;20567;-78
2023/10/02 01:12:49;;;;;;;15.88;14.00;;;23.10;92.70;;;;;;6214510;23;20005;-79
2023/10/02 01:15:20;;;;;;;17.02;14.73;;;23.10;92.80;;;;;;6215409;23;20036;-77
2023/10/02 01:17:50;;;;;;;18.27;14.90;;;23.00;92.80;;;;;;6189099;23;20043;-76
2023/10/02 01:20:53;;;;;;;16.83;14.85;;;23.00;92.80;;;;;;6214404;23;20064;-75
2023/10/02 01:23:16;;;;;;;19.10;14.80;;;23.00;92.70;;;;;;6209746;23;20005;-76
2023/10/02 01:25:47;;;;;;;18.52;14.38;;;22.90;92.70;;;;;;6215013;23;20005;-76
2023/10/02 01:28:20;;;;;;;22.17;19.88;;;22.80;92.70;;;;;;6215067;23;20074;-77
2023/10/02 01:30:47;;;;;;;20.42;17.00;;;22.80;92.90;;;;;;6187455;23;20008;-77
2023/10/02 01:33:26;;;;;;;17.75;15.02;;;22.60;93.10;;;;;;6215098;23;20004;-77
2023/10/02 01:35:56;;;;;;;16.60;14.93;;;22.60;93.10;;;;;;6214052;23;20008;-77
2023/10/02 01:38:29;;;;;;;18.65;16.40;;;22.50;93.10;;;;;;6214652;23;20008;-77
2023/10/02 01:41:10;;;;;;;17.98;15.02;;;22.50;93.20;;;;;;6214255;23;20008;-77
2023/10/02 01:43:45;;;;;;;17.80;15.65;;;22.60;93.30;;;;;;6216810;23;20079;-77
2023/10/02 01:46:17;;;;;;;21.17;18.95;;;22.50;93.30;;;;;;6216596;23;20051;-77
2023/10/02 01:48:44;;;;;;;16.80;14.93;;;22.50;93.50;;;;;;6216528;23;20042;-77
2023/10/02 01:53:54;;;;;;;16.05;14.27;;;22.40;93.40;;;;;;6217089;23;20024;-77
2023/10/02 01:56:22;;;;;;;19.92;15.95;;;22.30;93.30;;;;;;6216884;23;20046;-77
2023/10/02 01:58:48;;;;;;;18.08;15.57;;;22.30;93.30;;;;;;6216818;23;20001;-77
2023/10/02 02:01:15;;;;;;;17.52;15.43;;;22.30;93.40;;;;;;6217268;23;20331;-78
2023/10/02 02:03:48;;;;;;;21.27;14.82;;;22.30;93.30;;;;;;6216492;23;20008;-78
2023/10/02 02:06:22;;;;;;;15.93;14.30;;;22.30;93.40;;;;;;6217228;23;20419;-78
2023/10/02 02:08:58;;;;;;;15.82;13.98;;;22.30;93.40;;;;;;6217146;23;20303;-78
2023/10/02 02:11:28;;;;;;;18.65;16.42;;;22.30;93.40;;;;;;6216683;23;20422;-78
2023/10/02 02:13:55;;;;;;;;;;;22.20;93.50;;;;;;6217024;23;20023;-78
2023/10/02 02:16:30;;;;;;;16.02;14.30;;;22.20;93.50;;;;;;6215837;23;20289;-78
2023/10/02 02:18:58;;;;;;;16.88;14.68;;;22.20;93.60;;;;;;6189384;23;20351;-77
2023/10/02 02:21:24;;;;;;;18.52;15.77;;;22.20;93.50;;;;;;6216816;23;20012;-78
2023/10/02 02:24:03;;;;;;;18.65;14.65;;;22.20;93.50;;;;;;6215412;23;20080;-78
2023/10/02 02:26:31;;;;;;;17.15;14.85;;;22.20;93.50;;;;;;6215945;23;20005;-77
2023/10/02 02:28:57;;;;;;;17.20;14.82;;;22.20;93.50;;;;;;6216106;23;20092;-77
2023/10/02 02:31:29;;;;;;;18.92;14.27;;;22.20;93.40;;;;;;6215852;23;20032;-77
2023/10/02 02:34:08;;;;;;;19.17;13.60;;;22.20;93.40;;;;;;6216415;23;20415;-79
2023/10/02 02:36:35;;;;;;;15.10;12.98;;;22.20;93.30;;;;;;6216247;23;20003;-79
2023/10/02 02:39:16;;;;;;;15.38;13.35;;;22.10;93.20;;;;;;6215921;23;20001;-79
2023/10/02 02:41:43;;;;;;;15.27;13.43;;;22.10;93.20;;;;;;6216183;23;20088;-79
2023/10/02 02:44:36;;;;;;;17.35;13.98;;;22.10;93.20;;;;;;6215099;23;20028;-78
2023/10/02 02:47:07;;;;;;;14.63;12.48;;;22.10;93.10;;;;;;6215747;23;20001;-77
2023/10/02 02:49:58;;;;;;;14.38;12.85;;;22.10;93.10;;;;;;6215553;23;20009;-76
2023/10/02 02:52:32;;;;;;;17.05;12.48;;;22.20;93.00;;;;;;6216115;23;20062;-77
2023/10/02 02:55:12;;;;;;;13.20;11.80;;;22.20;92.90;;;;;;6215978;23;20032;-77
2023/10/02 02:57:45;;;;;;;13.90;12.10;;;22.20;92.80;;;;;;6215961;23;20054;-77
2023/10/02 03:00:24;;;;;;;13.75;11.75;;;22.20;92.70;;;;;;6215743;23;20007;-77
2023/10/02 03:02:53;;;;;;;14.13;10.85;;;22.20;92.60;;;;;;6216020;23;20004;-77
2023/10/02 03:05:22;;;;;;;12.32;11.02;;;22.20;92.50;;;;;;6216703;23;20000;-77
2023/10/02 03:07:56;;;;;;;15.30;12.20;;;22.10;92.30;;;;;;6216669;23;20054;-76
2023/10/02 03:10:26;;;;;;;13.15;11.10;;;22.10;92.20;;;;;;6215665;23;20028;-77
2023/10/02 03:12:52;;;;;;;12.77;11.00;;;22.00;92.20;;;;;;6216274;23;20005;-77
2023/10/02 03:18:22;;;;;;;16.77;11.73;;;21.90;92.30;;;;;;6216118;23;20017;-78
2023/10/02 03:20:58;;;;;;;13.30;10.68;;;22.00;92.20;;;;;;6216101;23;20004;-78
2023/10/02 03:23:28;;;;;;;13.13;11.30;;;22.00;92.10;;;;;;6189553;23;20323;-78
2023/10/02 03:25:56;;;;;;;14.45;10.20;;;22.00;92.00;;;;;;6215131;23;20004;-78
2023/10/02 03:28:31;;;;;;;14.60;11.63;;;21.90;92.00;;;;;;6189761;23;20160;-78
2023/10/02 03:30:59;;;;;;;12.68;10.70;;;21.90;92.10;;;;;;6216144;23;20051;-78
2023/10/02 03:33:30;;;;;;;13.25;11.45;;;21.90;92.10;;;;;;6216315;23;19992;-78
2023/10/02 03:36:09;;;;;;;12.80;10.68;;;21.80;92.20;;;;;;6215958;23;20011;-78
2023/10/02 03:38:41;;;;;;;12.70;10.52;;;21.80;92.20;;;;;;6215959;23;20024;-78
2023/10/02 03:41:13;;;;;;;14.60;12.10;;;21.80;92.30;;;;;;6216093;23;20028;-78
2023/10/02 03:43:49;;;;;;;15.60;11.98;;;21.80;92.30;;;;;;6215873;23;20001;-78
2023/10/02 03:46:35;;;;;;;17.48;12.15;;;21.80;92.30;;;;;;6215902;23;20323;-77
2023/10/02 03:49:03;;;;;;;15.82;11.75;;;21.80;92.30;;;;;;6215614;23;20015;-77
2023/10/02 03:51:36;;;;;;;13.23;11.13;;;21.80;92.20;;;;;;6215492;23;20079;-77
2023/10/02 03:54:18;;;;;;;17.48;10.15;;;21.80;92.10;;;;;;6215994;23;20016;-77
2023/10/02 03:56:56;;;;;;;12.80;11.18;;;21.80;92.10;;;;;;6214683;23;20025;-77
2023/10/02 03:59:27;;;;;;;13.70;11.68;;;21.70;92.10;;;;;;6189367;23;19997;-77
2023/10/02 04:02:24;;;;;;;14.68;12.40;;;21.70;92.10;;;;;;6215766;23;19997;-77
2023/10/02 04:04:44;;;;;;;16.67;12.48;;;21.70;92.10;;;;;;6215578;23;20066;-77
2023/10/02 04:07:11;;;;;;;16.73;13.20;;;21.70;92.20;;;;;;6215781;23;20013;-77
2023/10/02 04:09:37;;;;;;;16.48;13.15;;;21.70;92.20;;;;;;6188665;23;20005;-77
2023/10/02 04:12:07;;;;;;;16.77;13.38;;;21.70;92.20;;;;;;6188603;23;20156;-76
2023/10/02 04:14:33;;;;;;;17.60;14.23;;;21.70;92.30;;;;;;6215697;23;20087;-77
2023/10/02 04:17:34;;;;;;;17.67;13.00;;;21.60;92.40;;;;;;6216123;23;20075;-76
2023/10/02 04:20:01;;;;;;;20.13;14.57;;;21.60;92.40;;;;;;6213427;23;20026;-77
2023/10/02 04:22:27;;;;;;;20.75;16.00;;;21.60;92.50;;;;;;6215386;23;20022;-76
2023/10/02 04:24:58;;;;;;;22.58;15.02;;;21.50;92.50;;;;;;6215195;23;20423;-76
2023/10/02 04:28:00;;;;;;;19.38;14.65;;;21.50;92.60;;;;;;6189742;23;20032;-76
2023/10/02 04:30:25;;;;;;;24.08;16.13;;;21.50;92.70;;;;;;6214529;23;20044;-76
2023/10/02 04:32:51;;;;;;;26.63;16.50;;;21.40;92.70;;;;;;6214877;23;20004;-76
2023/10/02 04:38:08;;;;;;;22.67;16.92;;;21.40;92.90;;;;;;6215172;23;20028;-78
2023/10/02 04:40:44;;;;;;;22.00;16.25;;;21.40;92.90;;;;;;6214219;23;20004;-76
2023/10/02 04:45:44;;;;;;;23.58;15.48;;;21.30;93.10;;;;;;6214873;23;20091;-76
2023/10/02 04:48:10;;;;;;;22.08;15.45;;;21.30;93.30;;;;;;6214625;23;20007;-76
2023/10/02 04:50:45;;;;;;;23.63;16.55;;;21.30;93.40;;;;;;6188025;23;20087;-74
2023/10/02 04:55:43;;;;;;;27.75;18.10;;;21.20;93.80;;;;;;6217823;23;20012;-74
2023/10/02 04:58:28;;;;;;;28.23;18.67;;;21.20;94.00;;;;;;6214804;23;20338;-76
2023/10/02 05:03:28;;;;;;;27.65;17.30;;;21.30;94.10;;;;;;6214782;23;20062;-74
2023/10/02 05:05:58;;;;;;;28.08;18.55;;;21.20;94.10;;;;;;6186393;23;20008;-72
2023/10/02 05:11:26;;;;;;;26.52;19.33;;;21.30;94.10;;;;;;6178818;23;20339;-79
2023/10/02 05:16:38;;;;;;;25.50;17.58;;;21.20;94.00;;;;;;6215378;23;19924;-81
2023/10/02 05:19:06;;;;;;;25.40;17.48;;;21.30;94.00;;;;;;6215556;23;20011;-80
2023/10/02 05:21:38;;;;;;;25.55;16.92;;;21.20;93.90;;;;;;6215446;23;20008;-81
2023/10/02 05:24:05;;;;;;;27.25;18.38;;;21.20;93.80;;;;;;6215813;23;20008;-81
2023/10/02 05:26:39;;;;;;;24.63;16.63;;;21.30;93.70;;;;;;6214505;23;20039;-80
2023/10/02 05:29:17;;;;;;;24.92;16.38;;;21.20;93.60;;;;;;6216186;23;20549;-81
2023/10/02 05:31:49;;;;;;;24.85;15.50;;;21.30;93.60;;;;;;6216371;23;20028;-75
2023/10/02 05:34:25;;;;;;;29.48;18.55;;;21.30;93.40;;;;;;6189147;23;20090;-74
2023/10/02 05:39:42;;;;;;;27.48;16.70;;;21.20;93.50;;;;;;6217457;23;20802;-74
2023/10/02 05:42:13;;;;;;;27.20;18.08;;;21.30;93.50;;;;;;6214475;23;20076;-83
2023/10/02 05:44:39;;;;;;;24.42;15.57;;;21.30;93.40;;;;;;6216147;23;20011;-75
2023/10/02 05:47:05;;;;;;;26.20;16.98;;;21.30;93.40;;;;;;6190484;23;20431;-75
2023/10/02 05:49:32;;;;;;;25.90;15.98;;;21.30;93.30;;;;;;6216933;23;20016;-80
2023/10/02 05:52:00;;;;;;;24.00;15.77;;;21.30;93.30;;;;;;6217025;23;20005;-82
2023/10/02 05:54:29;;;;;;;21.25;14.30;;;21.40;93.20;;;;;;6213943;23;20008;-81
2023/10/02 05:57:08;;;;;;;29.50;15.00;;;21.40;93.20;;;;;;6214738;23;20005;-75
2023/10/02 05:59:48;;;;;;;19.38;13.45;;;21.40;93.10;;;;;;6216735;23;20439;-75
2023/10/02 06:02:19;;;;;;;23.15;13.40;;;21.40;93.10;;;;;;6216600;23;20015;-75
2023/10/02 06:04:48;;;;;;;21.17;14.57;;;21.50;93.10;;;;;;6215536;23;20015;-76
2023/10/02 06:07:40;;;;;;;26.58;16.23;;;21.50;93.00;;;;;;6214842;23;20011;-75
2023/10/02 06:10:24;;;;;;;20.70;12.52;;;21.40;92.80;;;;;;6216513;23;20415;-75
2023/10/02 06:13:02;;;;;;;21.00;14.35;;;21.40;92.80;;;;;;6216677;23;20005;-74
2023/10/02 06:15:48;;;;;;;21.80;14.43;;;21.30;92.80;;;;;;6216153;23;20005;-76
2023/10/02 06:18:29;;;;;;;19.25;12.57;;;21.30;93.00;;;;;;6216555;23;20390;-76
2023/10/02 06:21:00;;;;;;;18.60;12.07;;;21.30;93.20;;;;;;6216448;23;20412;-76
2023/10/02 06:23:29;;;;;;;25.42;13.52;;;21.40;93.30;;;;;;6216936;23;20008;-77
2023/10/02 06:25:58;;;;;;;22.48;14.43;;;21.40;93.40;;;;;;6217015;23;20419;-75
2023/10/02 06:28:27;;;;;;;21.65;14.32;;;21.40;93.40;;;;;;6189735;23;20307;-76
2023/10/02 06:30:57;;;;;;;19.88;13.50;;;21.40;93.40;;;;;;6215659;23;20088;-74
2023/10/02 06:33:24;;;;;;;21.58;13.55;;;21.40;93.40;;;;;;6215719;23;20319;-75
2023/10/02 06:35:57;;;;;;;22.40;14.57;;;21.40;93.40;;;;;;6215208;23;20005;-74
2023/10/02 06:38:23;;;;;;;19.63;12.80;;;21.40;93.50;;;;;;6209347;23;20439;-79
2023/10/02 06:40:58;;;;;;;17.05;11.88;;;21.30;93.70;;;;;;6186840;23;20005;-81
2023/10/02 06:43:31;;;;;;;16.50;11.68;;;21.30;93.70;;;;;;6189352;23;20075;-79
2023/10/02 06:46:09;;;;;;;19.35;12.63;;;21.20;93.70;;;;;;6216262;23;20000;-78
2023/10/02 06:48:39;;;;;;;18.77;13.15;;;21.20;93.70;;;;;;6210223;23;20005;-76
2023/10/02 06:51:05;;;;;;;20.30;13.23;;;21.30;93.80;;;;;;6182191;23;20011;-78
2023/10/02 06:53:33;;;;;;;23.25;13.80;;;21.30;93.80;;;;;;6186424;23;20059;-80
2023/10/02 06:56:06;;;;;;;17.27;13.23;;;21.40;93.80;;;;;;6185635;23;20006;-80
2023/10/02 06:58:46;;;;;;;24.25;15.07;;;21.40;93.70;;;;;;6185879;23;20072;-79
2023/10/02 07:01:19;;;;;;;29.65;13.35;;;21.50;93.90;;;;;;6187020;23;20005;-74
2023/10/02 07:03:51;;;;;;;19.98;12.75;;;21.40;93.60;;;;;;6185907;23;19997;-74
2023/10/02 07:06:25;;;;;;;19.90;13.25;;;21.40;93.50;;;;;;6184660;23;20004;-73
2023/10/02 07:09:10;;;;;;;19.90;13.30;;;21.50;93.60;;;;;;6185097;23;20420;-74
2023/10/02 07:11:42;;;;;;;23.60;14.45;;;21.50;93.60;;;;;;6185082;23;20001;-74
2023/10/02 07:14:12;;;;;;;20.05;13.57;;;21.50;93.60;;;;;;6158970;23;20088;-74
2023/10/02 07:16:38;;;;;;;23.63;14.10;;;21.60;93.60;;;;;;6186112;23;20005;-74
2023/10/02 07:19:04;;;;;;;20.30;12.77;;;21.70;93.60;;;;;;6185808;23;20212;-73
2023/10/02 07:21:35;;;;;;;20.58;11.88;;;21.80;93.60;;;;;;6180510;23;20093;-79
2023/10/02 07:24:25;;;;;;;23.08;11.80;;;21.80;93.60;;;;;;6186338;23;20041;-78
2023/10/02 07:26:51;;;;;;;26.30;12.35;;;21.80;93.50;;;;;;6185618;23;20013;-80
2023/10/02 07:29:19;;;;;;;22.20;13.85;;;21.80;93.50;;;;;;6185720;23;20424;-74
2023/10/02 07:31:45;;;;;;;24.50;14.45;;;21.80;93.70;;;;;;6185269;23;20001;-80
2023/10/02 07:34:15;;;;;;;21.95;12.45;;;21.70;93.80;;;;;;6182161;23;20005;-79
2023/10/02 07:36:44;;;;;;;14.65;10.43;;;21.60;94.00;;;;;;6183065;23;20083;-79
2023/10/02 07:42:00;;;;;;;16.45;10.45;;;21.50;94.60;;;;;;6185669;23;20043;-79
2023/10/02 07:44:36;;;;;;;14.40;9.27;;;21.50;94.70;;;;;;6185373;23;20001;-74
2023/10/02 07:47:20;;;;;;;15.57;9.52;;;21.50;94.60;;;;;;6183528;23;20335;-74
2023/10/02 07:49:48;;;;;;;16.52;9.98;;;21.70;94.60;;;;;;6204988;23;20009;-74
2023/10/02 07:52:29;;;;;;;14.40;8.90;;;21.80;94.60;;;;;;6215114;23;20112;-79
2023/10/02 07:54:59;;;;;;;13.55;8.57;;;21.90;94.40;;;;;;6215077;23;20092;-79
2023/10/02 07:57:32;;;;;;;14.85;10.02;;;22.10;94.20;;;;;;6215421;23;19997;-80
2023/10/02 08:00:49;;;;;;;18.58;10.50;;;22.20;94.10;;;;;;6215215;23;20008;-80
2023/10/02 08:02:53;;;;;;;17.80;10.93;;;22.30;94.10;;;;;;6202688;23;20036;-80
2023/10/02 08:05:25;;;;;;;32.08;16.80;;;22.30;93.90;;;;;;6215772;23;20056;-79
2023/10/02 08:08:08;;;;;;;26.60;15.70;;;22.20;94.00;;;;;;6215536;23;20000;-78
2023/10/02 08:10:49;;;;;;;22.77;13.00;;;22.20;94.10;;;;;;6214663;23;20005;-79
2023/10/02 08:13:16;;;;;;;24.70;15.50;;;22.30;94.10;;;;;;6215124;23;20281;-79
2023/10/02 08:15:44;;;;;;;20.17;13.18;;;22.30;94.20;;;;;;6214522;23;20008;-77
2023/10/02 08:18:17;;;;;;;16.95;11.18;;;22.30;94.30;;;;;;6215777;23;20315;-76
2023/10/02 08:20:45;;;;;;;23.00;14.45;;;22.40;94.30;;;;;;6215437;23;19996;-76
2023/10/02 08:23:21;;;;;;;17.23;9.80;;;22.40;94.30;;;;;;6215239;23;20000;-76
2023/10/02 08:26:03;;;;;;;15.90;11.77;;;22.40;94.30;;;;;;6212578;23;20082;-76
2023/10/02 08:28:35;;;;;;;19.88;12.18;;;22.60;94.30;;;;;;6212389;23;20001;-76
2023/10/02 08:31:02;;;;;;;17.75;10.10;;;22.70;94.00;;;;;;6215601;23;20047;-76
2023/10/02 08:33:30;;;;;;;15.00;10.30;;;22.80;93.90;;;;;;6214665;23;20416;-76
2023/10/02 08:36:09;;;;;;;15.35;9.13;;;22.90;93.80;;;;;;6215171;23;20055;-76
2023/10/02 08:38:36;;;;;;;16.45;8.65;;;23.10;93.80;;;;;;6215433;23;20415;-76
2023/10/02 08:41:06;;;;;;;14.32;8.23;;;23.30;93.60;;;;;;6215518;23;20004;-76
2023/10/02 08:43:33;;;;;;;14.52;9.25;;;23.50;93.30;;;;;;6215129;23;20004;-76
2023/10/02 08:45:59;;;;;;;14.63;9.57;;;23.70;93.20;;;;;;6215167;23;20005;-76
2023/10/02 08:48:25;;;;;;;12.90;8.77;;;24.00;92.90;;;;;;6212109;23;20001;-76
2023/10/02 08:50:57;;;;;;;17.00;10.00;;;24.20;92.70;;;;;;6184958;23;20029;-76
2023/10/02 08:53:24;;;;;;;16.20;9.95;;;24.40;92.40;;;;;;6185079;23;20052;-76
2023/10/02 08:56:05;;;;;;;15.32;9.23;;;24.50;91.80;;;;;;6185290;23;20049;-76
2023/10/02 08:58:31;;;;;;;16.38;8.45;;;24.60;91.80;;;;;;6185080;23;20052;-76
2023/10/02 09:06:41;;;;;;;13.48;7.70;;;24.90;91.40;;;;;;6185089;23;20060;-76
2023/10/02 09:09:21;;;;;;;15.43;10.13;;;25.10;91.40;;;;;;6185104;23;20024;-76
2023/10/02 09:12:08;;;;;;;12.95;8.60;;;25.20;90.90;;;;;;6185217;23;20121;-76
2023/10/02 09:17:12;;;;;;;13.20;7.35;;;25.10;90.70;;;;;;6185735;23;20021;-77
2023/10/02 09:19:41;;;;;;;10.82;7.50;;;25.10;91.00;;;;;;6184842;23;20416;-77
2023/10/02 09:22:14;;;;;;;12.23;7.95;;;25.20;91.20;;;;;;6185235;23;20001;-77
2023/10/02 09:25:09;;;;;;;9.43;7.00;;;25.40;91.10;;;;;;6185018;23;20032;-77
2023/10/02 09:27:41;;;;;;;11.18;6.88;;;25.60;91.00;;;;;;6185213;23;20048;-77
2023/10/02 09:32:47;;;;;;;11.77;7.53;;;26.10;90.60;;;;;;6185572;23;20012;-78
2023/10/02 09:35:44;;;;;;;8.82;6.70;;;26.20;90.40;;;;;;6184103;23;20028;-78
2023/10/02 09:38:13;;;;;;;11.70;6.45;;;26.40;90.10;;;;;;6184739;23;20109;-79
2023/10/02 09:43:30;;;;;;;9.35;6.07;;;26.80;89.20;;;;;;6185560;23;20005;-79
2023/10/02 09:46:06;;;;;;;13.52;7.63;;;27.00;88.60;;;;;;6185058;23;20001;-81
2023/10/02 09:48:46;;;;;;;11.27;6.25;;;27.10;87.90;;;;;;6189212;23;20040;-80
2023/10/02 09:51:45;;;;;;;11.48;7.47;;;27.20;87.40;;;;;;6213677;23;20011;-80
2023/10/02 09:54:28;;;;;;;8.77;6.22;;;27.40;86.70;;;;;;6213670;23;20369;-79
2023/10/02 09:57:11;;;;;;;10.65;6.85;;;27.50;86.30;;;;;;6214287;23;20001;-87
2023/10/02 09:59:47;;;;;;;12.68;6.88;;;27.70;85.60;;;;;;6213932;23;19997;-85
2023/10/02 10:11:10;;;;;;;9.93;6.78;;;27.90;84.10;;;;;;6214582;23;20009;-80
2023/10/02 10:13:37;;;;;;;9.63;7.00;;;28.00;83.60;;;;;;6214586;23;20028;-79
2023/10/02 10:16:21;;;;;;;10.35;7.28;;;28.20;84.00;;;;;;6214953;23;20000;-80
2023/10/02 10:21:55;;;;;;;10.77;7.45;;;28.50;82.90;;;;;;6215513;23;20430;-86
2023/10/02 10:25:22;;;;;;;10.50;6.63;;;28.60;82.50;;;;;;6215309;23;20072;-78
2023/10/02 10:28:05;;;;;;;12.70;8.55;;;28.80;82.00;;;;;;6214683;23;20084;-78
2023/10/02 10:33:15;;;;;;;10.95;7.28;;;29.10;82.30;;;;;;6216789;23;20063;-77
2023/10/02 10:35:49;;;;;;;9.45;6.80;;;29.20;81.70;;;;;;6214736;23;20005;-78
2023/10/02 10:38:36;;;;;;;13.32;7.40;;;29.30;81.40;;;;;;6214710;23;20003;-78
2023/10/02 10:41:06;;;;;;;11.38;7.78;;;29.40;81.00;;;;;;6215829;23;20021;-84
2023/10/02 10:46:23;;;;;;;9.93;6.95;;;29.50;80.80;;;;;;6215733;23;20418;-84
2023/10/02 10:49:24;;;;;;;12.55;7.20;;;29.60;80.90;;;;;;6138717;23;1176267;-84
2023/10/02 10:51:53;;;;;;;9.65;7.18;;;29.60;80.50;;;;;;6217035;23;20012;-84
2023/10/02 10:54:30;;;;;;;10.07;6.75;;;29.60;80.70;;;;;;6217570;23;20082;-84
2023/10/02 10:57:22;;;;;;;12.27;6.38;;;29.70;80.50;;;;;;6217517;23;20435;-84
2023/10/02 11:00:24;;;;;;;8.73;6.68;;;29.80;80.10;;;;;;6217497;23;19997;-84
2023/10/02 11:03:08;;;;;;;8.77;5.78;;;30.00;79.80;;;;;;6218283;23;20023;-84
2023/10/02 11:05:37;;;;;;;10.10;6.60;;;30.10;79.60;;;;;;6217213;23;20058;-84
2023/10/02 11:08:28;;;;;;;7.93;5.90;;;30.20;79.40;;;;;;6216883;23;20024;-77
2023/10/02 11:11:11;;;;;;;8.68;6.20;;;30.30;79.10;;;;;;6216251;23;20560;-78
2023/10/02 11:13:50;;;;;;;10.90;7.03;;;30.50;79.00;;;;;;6216174;23;20554;-78
2023/10/02 11:16:22;;;;;;;;;;;30.60;78.90;;;;;;6215953;23;20434;-78
2023/10/02 11:19:11;;;;;;;11.13;8.15;;;30.70;78.40;;;;;;6216252;23;19900;-77
2023/10/02 11:21:45;;;;;;;12.05;8.02;;;30.90;77.90;;;;;;6216658;23;20001;-77
2023/10/02 11:24:23;;;;;;;14.18;9.00;;;31.00;77.80;;;;;;6216079;23;20005;-77
2023/10/02 11:26:53;;;;;;;18.05;9.75;;;31.10;75.70;;;;;;6216090;23;20438;-77
2023/10/02 11:29:23;;;;;;;12.95;8.25;;;31.10;75.20;;;;;;6216700;23;20004;-77
2023/10/02 11:32:19;;;;;;;13.95;8.10;;;31.20;75.40;;;;;;6216117;23;20005;-77
2023/10/02 11:34:46;;;;;;;13.05;8.90;;;31.30;75.20;;;;;;6216229;23;20005;-76
2023/10/02 11:37:13;;;;;;;15.93;8.82;;;31.50;74.20;;;;;;6215905;23;20487;-76
2023/10/02 11:39:39;;;;;;;14.50;8.60;;;31.60;73.20;;;;;;6216101;23;20000;-76
2023/10/02 11:42:07;;;;;;;13.48;8.98;;;31.70;72.80;;;;;;6216106;23;20001;-76
2023/10/02 11:44:33;;;;;;;13.23;8.00;;;31.80;71.80;;;;;;6216106;23;20000;-76
2023/10/02 11:46:59;;;;;;;9.15;6.65;;;32.00;71.70;;;;;;6215733;23;20031;-76
2023/10/02 11:49:29;;;;;;;11.40;6.32;;;32.10;70.60;;;;;;6215426;23;20016;-84
2023/10/02 11:52:03;;;;;;;10.30;6.50;;;32.20;70.00;;;;;;6226686;22;20421;-76
2023/10/02 11:54:32;;;;;;;10.25;6.65;;;32.40;69.10;;;;;;6218764;23;20306;-75
2023/10/02 11:56:57;;;;;;;11.00;8.18;;;32.40;68.30;;;;;;6246487;23;20460;-76
2023/10/02 11:59:23;;;;;;;10.45;6.93;;;32.50;67.80;;;;;;6245884;23;19996;-76
2023/10/02 12:01:49;;;;;;;10.13;6.47;;;32.60;68.20;;;;;;6245876;23;20004;-76
2023/10/02 12:04:15;;;;;;;11.23;6.50;;;32.70;67.20;;;;;;6246124;23;20000;-76
2023/10/02 12:06:42;;;;;;;13.05;5.68;;;32.70;67.10;;;;;;6245661;23;20026;-77
2023/10/02 12:09:17;;;;;;;10.52;6.78;;;32.80;66.00;;;;;;6244981;23;20008;-78
2023/10/02 12:11:43;;;;;;;11.48;5.05;;;32.80;66.50;;;;;;6244686;23;20000;-77
2023/10/02 12:14:09;;;;;;;8.57;5.50;;;32.90;65.30;;;;;;6244864;23;20718;-76
2023/10/02 12:16:34;;;;;;;7.43;5.55;;;33.00;64.60;;;;;;6244596;23;20000;-77
2023/10/02 12:19:00;;;;;;;9.38;5.22;;;33.10;63.80;;;;;;6244105;23;20003;-77
2023/10/02 12:21:26;;;;;;;8.45;5.22;;;33.10;61.70;;;;;;6244907;23;20067;-77
2023/10/02 12:23:51;;;;;;;9.07;5.90;;;33.10;61.40;;;;;;6244604;23;20418;-77
2023/10/02 12:26:20;;;;;;;11.60;7.78;;;33.10;61.40;;;;;;6246639;23;20084;-87
2023/10/02 12:28:46;;;;;;;12.45;7.55;;;33.20;62.40;;;;;;6247425;23;20487;-89
2023/10/02 12:31:17;;;;;;;11.18;7.30;;;33.20;63.20;;;;;;6249256;23;20066;-88
2023/10/02 12:33:48;;;;;;;9.32;7.45;;;33.20;62.90;;;;;;6248902;23;20140;-86
2023/10/02 12:36:22;;;;;;;9.60;7.20;;;33.20;62.70;;;;;;6246363;23;20387;-77
2023/10/02 12:38:50;;;;;;;11.68;7.60;;;33.10;62.90;;;;;;6245357;23;20000;-87
2023/10/02 12:41:23;;;;;;;11.32;6.47;;;33.10;62.40;;;;;;6248265;23;20010;-88
2023/10/02 12:43:59;;;;;;;8.93;6.35;;;33.10;62.80;;;;;;6247197;23;20004;-85
2023/10/02 12:46:26;;;;;;;10.65;6.40;;;33.10;61.90;;;;;;6246849;23;20422;-87
2023/10/02 12:48:55;;;;;;;10.15;6.35;;;33.00;62.10;;;;;;6244166;23;20000;-77
2023/10/02 12:51:22;;;;;;;9.45;5.20;;;32.80;62.20;;;;;;6244346;23;20074;-77
2023/10/02 12:53:49;;;;;;;6.63;4.47;;;32.70;61.40;;;;;;6217736;23;20043;-77
2023/10/02 12:56:24;;;;;;;7.63;4.30;;;32.60;60.70;;;;;;6244410;23;20004;-77
2023/10/02 12:58:54;;;;;;;9.35;4.20;;;32.50;60.60;;;;;;6217212;23;20505;-85
2023/10/02 13:01:26;;;;;;;7.90;4.80;;;32.20;59.90;;;;;;6247897;23;20377;-84
2023/10/02 13:03:56;;;;;;;5.78;3.92;;;32.00;57.60;;;;;;6247671;23;20004;-77
2023/10/02 13:06:24;;;;;;;;;;;31.70;57.90;;;;;;6217388;23;20095;-78
2023/10/02 13:08:50;;;;;;;6.85;4.57;;;31.40;57.80;;;;;;6244145;23;20282;-77
2023/10/02 13:11:22;;;;;;;8.02;4.10;;;31.10;58.40;;;;;;6244954;23;20075;-77
2023/10/02 13:13:53;;;;;;;7.72;4.53;;;30.80;59.30;;;;;;6248500;23;20406;-78
2023/10/02 13:16:20;;;;;;;9.80;5.37;;;30.60;60.00;;;;;;6245512;23;20007;-87
2023/10/02 13:18:46;;;;;;;6.43;4.88;;;30.40;60.80;;;;;;6220272;23;20223;-88
2023/10/02 13:21:18;;;;;;;8.05;5.30;;;30.30;61.40;;;;;;6246138;23;20007;-88
2023/10/02 13:23:46;;;;;;;8.93;4.97;;;30.10;62.00;;;;;;6246784;23;20004;-77
2023/10/02 13:26:16;;;;;;;11.43;5.07;;;30.00;62.70;;;;;;6218288;23;20099;-77
2023/10/02 13:28:47;;;;;;;;;;;29.90;63.10;;;;;;6246373;23;20000;-76
2023/10/02 13:31:16;;;;;;;7.03;5.45;;;29.80;64.10;;;;;;6219265;23;19957;-77
2023/10/02 13:33:47;;;;;;;10.02;5.45;;;29.70;64.40;;;;;;6245577;23;20008;-77
2023/10/02 13:36:22;;;;;;;8.15;5.45;;;29.70;65.10;;;;;;6218972;23;20028;-76
2023/10/02 13:38:53;;;;;;;9.10;5.15;;;29.60;65.60;;;;;;6245200;23;20004;-77
2023/10/02 13:41:20;;;;;;;6.35;4.40;;;29.60;65.70;;;;;;6247044;23;19996;-76
2023/10/02 13:43:48;;;;;;;6.43;4.40;;;29.50;64.80;;;;;;6220782;23;20074;-76
2023/10/02 13:46:16;;;;;;;5.70;4.10;;;29.50;64.60;;;;;;6248019;23;20012;-75
2023/10/02 13:48:45;;;;;;;6.15;4.40;;;29.40;64.70;;;;;;6247759;23;20058;-76
2023/10/02 13:51:13;;;;;;;6.13;4.57;;;29.30;64.80;;;;;;6220648;23;20008;-76
2023/10/02 13:53:40;;;;;;;5.80;4.40;;;29.30;65.10;;;;;;6247631;23;20008;-76
2023/10/02 13:56:19;;;;;;;6.93;5.03;;;29.20;65.00;;;;;;6248344;23;20422;-77
2023/10/02 13:58:50;;;;;;;9.65;4.82;;;29.20;65.30;;;;;;6248509;23;20004;-77
2023/10/02 14:01:19;;;;;;;6.20;4.45;;;29.10;65.60;;;;;;6248358;23;20007;-77
2023/10/02 14:03:46;;;;;;;8.57;5.18;;;29.10;65.50;;;;;;6247364;23;20402;-76